Airport ID:CYTF
Update Time (UTC):17/11/2019 12:04
Wind Speed (Knots):2
Wind Direction (Magnetic):150
Temperature (°C):-16.9
Dew Point (°C):-19.9
Humidity (%):78
Altimeter (inHg):30.5
Density Altitude (Feet):\\\\
Visibility (Miles):6
Clouds (Hundreds of feet):OVC120
Present Weather:
METAR:METAR CYTF 171200Z AUTO 12003KT 10SM OVC120 M17/M20 A3049

The data displayed is for advisory purposes only and is not to be used for flight planning or operations.

This page is not automatically refreshed. Reload the page to see current data.